sensor_id;sensor_type;location;lat;lon;timestamp;pressure;altitude;pressure_sealevel;temperature;humidity
22755;BME280;11544;42.020;23.094;2023-04-25T00:01:03;96489.84;;;14.17;100.00
22755;BME280;11544;42.020;23.094;2023-04-25T00:03:32;96482.78;;;14.47;100.00
22755;BME280;11544;42.020;23.094;2023-04-25T00:05:59;96484.31;;;14.08;100.00
22755;BME280;11544;42.020;23.094;2023-04-25T00:08:29;96490.22;;;14.11;100.00
22755;BME280;11544;42.020;23.094;2023-04-25T00:10:57;96489.94;;;14.16;100.00
22755;BME280;11544;42.020;23.094;2023-04-25T00:13:24;96481.69;;;14.08;100.00
22755;BME280;11544;42.020;23.094;2023-04-25T00:15:52;96483.47;;;13.93;100.00
22755;BME280;11544;42.020;23.094;2023-04-25T00:18:23;96486.09;;;14.22;100.00
22755;BME280;11544;42.020;23.094;2023-04-25T00:20:50;96476.53;;;14.35;100.00
22755;BME280;11544;42.020;23.094;2023-04-25T00:23:17;96472.81;;;14.10;100.00
22755;BME280;11544;42.020;23.094;2023-04-25T00:25:45;96472.41;;;14.31;100.00
22755;BME280;11544;42.020;23.094;2023-04-25T00:28:12;96465.59;;;14.28;100.00
22755;BME280;11544;42.020;23.094;2023-04-25T00:30:40;96459.41;;;14.29;100.00
22755;BME280;11544;42.020;23.094;2023-04-25T00:33:08;96466.78;;;14.51;100.00
22755;BME280;11544;42.020;23.094;2023-04-25T00:35:35;96468.28;;;14.27;100.00
22755;BME280;11544;42.020;23.094;2023-04-25T00:38:02;96458.44;;;14.45;100.00
22755;BME280;11544;42.020;23.094;2023-04-25T00:40:32;96455.28;;;14.25;100.00
22755;BME280;11544;42.020;23.094;2023-04-25T00:43:01;96451.19;;;13.92;100.00
22755;BME280;11544;42.020;23.094;2023-04-25T00:45:31;96449.41;;;14.07;100.00
22755;BME280;11544;42.020;23.094;2023-04-25T00:47:57;96462.34;;;14.10;100.00
22755;BME280;11544;42.020;23.094;2023-04-25T00:50:24;96462.22;;;13.97;100.00
22755;BME280;11544;42.020;23.094;2023-04-25T00:52:52;96454.91;;;14.17;100.00
22755;BME280;11544;42.020;23.094;2023-04-25T00:55:19;96458.75;;;14.26;100.00
22755;BME280;11544;42.020;23.094;2023-04-25T00:57:48;96462.69;;;13.90;100.00
22755;BME280;11544;42.020;23.094;2023-04-25T01:00:17;96453.88;;;14.19;100.00
22755;BME280;11544;42.020;23.094;2023-04-25T01:02:44;96455.56;;;14.21;100.00
22755;BME280;11544;42.020;23.094;2023-04-25T01:05:16;96454.28;;;13.99;100.00
22755;BME280;11544;42.020;23.094;2023-04-25T01:07:45;96455.41;;;14.09;100.00
22755;BME280;11544;42.020;23.094;2023-04-25T01:10:15;96456.06;;;13.84;100.00
22755;BME280;11544;42.020;23.094;2023-04-25T01:12:42;96463.06;;;13.98;100.00
22755;BME280;11544;42.020;23.094;2023-04-25T01:15:09;96456.91;;;14.13;100.00
22755;BME280;11544;42.020;23.094;2023-04-25T01:17:36;96451.09;;;13.94;100.00
22755;BME280;11544;42.020;23.094;2023-04-25T01:20:16;96441.47;;;14.09;100.00
22755;BME280;11544;42.020;23.094;2023-04-25T01:23:37;96434.22;;;14.27;100.00
22755;BME280;11544;42.020;23.094;2023-04-25T01:26:06;96428.16;;;13.97;100.00
22755;BME280;11544;42.020;23.094;2023-04-25T01:28:33;96424.78;;;14.10;100.00
22755;BME280;11544;42.020;23.094;2023-04-25T01:31:01;96431.97;;;14.35;100.00
22755;BME280;11544;42.020;23.094;2023-04-25T01:33:29;96421.72;;;14.17;100.00
22755;BME280;11544;42.020;23.094;2023-04-25T01:36:22;96418.16;;;13.90;100.00
22755;BME280;11544;42.020;23.094;2023-04-25T01:39:36;96410.94;;;14.08;100.00
22755;BME280;11544;42.020;23.094;2023-04-25T01:42:10;96395.75;;;14.27;100.00
22755;BME280;11544;42.020;23.094;2023-04-25T01:44:37;96404.09;;;14.19;100.00
22755;BME280;11544;42.020;23.094;2023-04-25T01:47:04;96407.13;;;13.85;100.00
22755;BME280;11544;42.020;23.094;2023-04-25T01:49:46;96416.66;;;13.57;100.00
22755;BME280;11544;42.020;23.094;2023-04-25T01:52:13;96417.41;;;13.59;100.00
22755;BME280;11544;42.020;23.094;2023-04-25T01:54:40;96411.81;;;13.80;100.00
22755;BME280;11544;42.020;23.094;2023-04-25T01:57:12;96412.09;;;13.75;100.00
22755;BME280;11544;42.020;23.094;2023-04-25T01:59:42;96406.44;;;13.52;100.00
22755;BME280;11544;42.020;23.094;2023-04-25T02:02:10;96407.56;;;13.77;100.00
22755;BME280;11544;42.020;23.094;2023-04-25T02:04:37;96399.16;;;13.86;100.00
22755;BME280;11544;42.020;23.094;2023-04-25T02:07:04;96404.94;;;13.63;100.00
22755;BME280;11544;42.020;23.094;2023-04-25T02:09:31;96394.19;;;13.67;100.00
22755;BME280;11544;42.020;23.094;2023-04-25T02:12:01;96393.16;;;13.55;100.00
22755;BME280;11544;42.020;23.094;2023-04-25T02:14:28;96390.25;;;13.31;100.00
22755;BME280;11544;42.020;23.094;2023-04-25T02:16:55;96385.19;;;13.28;100.00
22755;BME280;11544;42.020;23.094;2023-04-25T02:19:24;96381.50;;;13.17;100.00
22755;BME280;11544;42.020;23.094;2023-04-25T02:21:51;96388.31;;;13.35;100.00
22755;BME280;11544;42.020;23.094;2023-04-25T02:24:19;96374.00;;;13.55;100.00
22755;BME280;11544;42.020;23.094;2023-04-25T02:26:46;96377.78;;;12.90;100.00
22755;BME280;11544;42.020;23.094;2023-04-25T02:29:13;96377.50;;;13.11;100.00
22755;BME280;11544;42.020;23.094;2023-04-25T02:31:42;96384.28;;;12.99;100.00
22755;BME280;11544;42.020;23.094;2023-04-25T02:34:09;96387.81;;;12.98;100.00
22755;BME280;11544;42.020;23.094;2023-04-25T02:36:36;96386.94;;;13.13;100.00
22755;BME280;11544;42.020;23.094;2023-04-25T02:39:03;96383.28;;;13.16;100.00
22755;BME280;11544;42.020;23.094;2023-04-25T02:41:30;96375.16;;;13.21;100.00
22755;BME280;11544;42.020;23.094;2023-04-25T02:43:56;96373.72;;;13.15;100.00
22755;BME280;11544;42.020;23.094;2023-04-25T02:46:23;96382.00;;;13.23;100.00
22755;BME280;11544;42.020;23.094;2023-04-25T02:49:04;96379.97;;;13.43;100.00
22755;BME280;11544;42.020;23.094;2023-04-25T02:51:31;96378.59;;;13.37;100.00
22755;BME280;11544;42.020;23.094;2023-04-25T02:53:59;96378.19;;;13.29;100.00
22755;BME280;11544;42.020;23.094;2023-04-25T02:56:25;96375.06;;;13.22;100.00
22755;BME280;11544;42.020;23.094;2023-04-25T02:58:53;96373.03;;;13.27;100.00
22755;BME280;11544;42.020;23.094;2023-04-25T03:01:20;96387.88;;;13.27;100.00
22755;BME280;11544;42.020;23.094;2023-04-25T03:03:47;96393.63;;;13.33;100.00
22755;BME280;11544;42.020;23.094;2023-04-25T03:06:15;96385.25;;;13.27;100.00
22755;BME280;11544;42.020;23.094;2023-04-25T03:08:42;96390.06;;;13.04;100.00
22755;BME280;11544;42.020;23.094;2023-04-25T03:11:09;96391.91;;;13.18;100.00
22755;BME280;11544;42.020;23.094;2023-04-25T03:13:37;96389.41;;;13.01;100.00
22755;BME280;11544;42.020;23.094;2023-04-25T03:16:04;96392.97;;;13.00;100.00
22755;BME280;11544;42.020;23.094;2023-04-25T03:18:31;96386.28;;;12.94;100.00
22755;BME280;11544;42.020;23.094;2023-04-25T03:20:58;96380.63;;;13.02;100.00
22755;BME280;11544;42.020;23.094;2023-04-25T03:23:25;96381.28;;;13.05;100.00
22755;BME280;11544;42.020;23.094;2023-04-25T03:25:52;96378.31;;;12.81;100.00
22755;BME280;11544;42.020;23.094;2023-04-25T03:28:19;96388.47;;;13.02;100.00
22755;BME280;11544;42.020;23.094;2023-04-25T03:30:46;96386.50;;;13.05;100.00
22755;BME280;11544;42.020;23.094;2023-04-25T03:33:13;96390.34;;;13.00;100.00
22755;BME280;11544;42.020;23.094;2023-04-25T03:35:40;96387.03;;;13.26;100.00
22755;BME280;11544;42.020;23.094;2023-04-25T03:38:07;96396.34;;;13.02;100.00
22755;BME280;11544;42.020;23.094;2023-04-25T03:40:37;96396.34;;;13.02;100.00
22755;BME280;11544;42.020;23.094;2023-04-25T03:43:07;96393.56;;;13.19;100.00
22755;BME280;11544;42.020;23.094;2023-04-25T03:45:34;96385.75;;;13.33;100.00
22755;BME280;11544;42.020;23.094;2023-04-25T03:48:01;96384.53;;;12.95;100.00
22755;BME280;11544;42.020;23.094;2023-04-25T03:50:28;96383.00;;;13.06;100.00
22755;BME280;11544;42.020;23.094;2023-04-25T03:52:55;96387.38;;;13.20;100.00
22755;BME280;11544;42.020;23.094;2023-04-25T03:55:21;96391.91;;;13.18;100.00
22755;BME280;11544;42.020;23.094;2023-04-25T03:57:48;96390.28;;;13.16;100.00
22755;BME280;11544;42.020;23.094;2023-04-25T04:00:15;96393.75;;;13.16;100.00
22755;BME280;11544;42.020;23.094;2023-04-25T04:02:42;96395.41;;;13.47;100.00
22755;BME280;11544;42.020;23.094;2023-04-25T04:05:11;96392.09;;;13.29;100.00
22755;BME280;11544;42.020;23.094;2023-04-25T04:07:38;96386.19;;;13.26;100.00
22755;BME280;11544;42.020;23.094;2023-04-25T04:10:07;96394.09;;;13.10;100.00
22755;BME280;11544;42.020;23.094;2023-04-25T04:12:34;96389.66;;;13.26;100.00
22755;BME280;11544;42.020;23.094;2023-04-25T04:15:03;96388.03;;;13.09;100.00
22755;BME280;11544;42.020;23.094;2023-04-25T04:17:30;96393.25;;;13.40;100.00
22755;BME280;11544;42.020;23.094;2023-04-25T04:19:57;96393.91;;;13.13;100.00
22755;BME280;11544;42.020;23.094;2023-04-25T04:22:24;96392.38;;;12.95;100.00
22755;BME280;11544;42.020;23.094;2023-04-25T04:24:51;96388.38;;;13.03;100.00
22755;BME280;11544;42.020;23.094;2023-04-25T04:27:19;96396.44;;;12.84;100.00
22755;BME280;11544;42.020;23.094;2023-04-25T04:29:47;96389.72;;;13.25;100.00
22755;BME280;11544;42.020;23.094;2023-04-25T04:32:15;96395.91;;;13.54;100.00
22755;BME280;11544;42.020;23.094;2023-04-25T04:34:42;96397.50;;;13.26;100.00
22755;BME280;11544;42.020;23.094;2023-04-25T04:37:09;96400.19;;;13.25;100.00
22755;BME280;11544;42.020;23.094;2023-04-25T04:39:36;96398.22;;;13.14;100.00
22755;BME280;11544;42.020;23.094;2023-04-25T04:42:03;96402.94;;;12.93;100.00
22755;BME280;11544;42.020;23.094;2023-04-25T04:44:31;96397.19;;;13.32;100.00
22755;BME280;11544;42.020;23.094;2023-04-25T04:47:01;96407.28;;;13.53;100.00
22755;BME280;11544;42.020;23.094;2023-04-25T04:49:32;96404.09;;;13.33;100.00
22755;BME280;11544;42.020;23.094;2023-04-25T04:51:59;96393.97;;;13.27;100.00
22755;BME280;11544;42.020;23.094;2023-04-25T04:54:27;96390.81;;;13.37;100.00
22755;BME280;11544;42.020;23.094;2023-04-25T04:56:54;96392.53;;;13.52;100.00
22755;BME280;11544;42.020;23.094;2023-04-25T04:59:21;96399.53;;;13.51;100.00
22755;BME280;11544;42.020;23.094;2023-04-25T05:01:48;96387.94;;;13.55;100.00
22755;BME280;11544;42.020;23.094;2023-04-25T05:04:14;96380.66;;;13.61;100.00
22755;BME280;11544;42.020;23.094;2023-04-25T05:06:44;96385.69;;;13.64;100.00
22755;BME280;11544;42.020;23.094;2023-04-25T05:09:14;96379.34;;;13.96;100.00
22755;BME280;11544;42.020;23.094;2023-04-25T05:11:42;96380.91;;;13.99;100.00
22755;BME280;11544;42.020;23.094;2023-04-25T05:14:08;96385.72;;;14.34;100.00
22755;BME280;11544;42.020;23.094;2023-04-25T05:16:35;96386.06;;;14.42;100.00
22755;BME280;11544;42.020;23.094;2023-04-25T05:19:02;96384.19;;;14.03;100.00
22755;BME280;11544;42.020;23.094;2023-04-25T05:21:29;96392.03;;;14.03;100.00
22755;BME280;11544;42.020;23.094;2023-04-25T05:23:57;96386.53;;;13.93;100.00
22755;BME280;11544;42.020;23.094;2023-04-25T05:26:25;96387.34;;;13.93;100.00
22755;BME280;11544;42.020;23.094;2023-04-25T05:28:52;96396.66;;;13.85;100.00
22755;BME280;11544;42.020;23.094;2023-04-25T05:31:18;96397.59;;;14.54;100.00
22755;BME280;11544;42.020;23.094;2023-04-25T05:33:45;96393.09;;;14.42;100.00
22755;BME280;11544;42.020;23.094;2023-04-25T05:36:12;96387.13;;;14.67;100.00
22755;BME280;11544;42.020;23.094;2023-04-25T05:38:39;96387.16;;;15.07;100.00
22755;BME280;11544;42.020;23.094;2023-04-25T05:41:06;96384.13;;;15.25;100.00
22755;BME280;11544;42.020;23.094;2023-04-25T05:43:33;96376.56;;;15.08;100.00
22755;BME280;11544;42.020;23.094;2023-04-25T05:46:00;96366.22;;;16.57;100.00
22755;BME280;11544;42.020;23.094;2023-04-25T05:48:27;96358.63;;;16.28;100.00
22755;BME280;11544;42.020;23.094;2023-04-25T05:50:54;96359.25;;;17.04;100.00
22755;BME280;11544;42.020;23.094;2023-04-25T05:53:21;96362.56;;;15.73;100.00
22755;BME280;11544;42.020;23.094;2023-04-25T05:55:48;96375.34;;;16.27;100.00
22755;BME280;11544;42.020;23.094;2023-04-25T05:58:15;96369.81;;;16.19;100.00
22755;BME280;11544;42.020;23.094;2023-04-25T06:00:42;96368.41;;;16.26;100.00
22755;BME280;11544;42.020;23.094;2023-04-25T06:03:27;96363.84;;;15.66;100.00
22755;BME280;11544;42.020;23.094;2023-04-25T06:05:55;96381.09;;;15.44;100.00
22755;BME280;11544;42.020;23.094;2023-04-25T06:08:22;96377.94;;;15.39;100.00
22755;BME280;11544;42.020;23.094;2023-04-25T06:10:50;96387.50;;;15.15;100.00
22755;BME280;11544;42.020;23.094;2023-04-25T06:13:17;96375.41;;;15.12;100.00
22755;BME280;11544;42.020;23.094;2023-04-25T06:15:44;96374.97;;;15.18;100.00
22755;BME280;11544;42.020;23.094;2023-04-25T06:18:11;96381.50;;;15.13;100.00
22755;BME280;11544;42.020;23.094;2023-04-25T06:20:38;96370.91;;;15.65;100.00
22755;BME280;11544;42.020;23.094;2023-04-25T06:23:05;96377.81;;;15.28;100.00
22755;BME280;11544;42.020;23.094;2023-04-25T06:25:32;96379.19;;;15.08;100.00
22755;BME280;11544;42.020;23.094;2023-04-25T06:28:05;96375.84;;;15.32;100.00
22755;BME280;11544;42.020;23.094;2023-04-25T06:30:32;96367.75;;;15.35;100.00
22755;BME280;11544;42.020;23.094;2023-04-25T06:32:59;96361.03;;;15.95;100.00
22755;BME280;11544;42.020;23.094;2023-04-25T06:35:26;96361.78;;;16.82;100.00
22755;BME280;11544;42.020;23.094;2023-04-25T06:37:53;96360.16;;;16.07;100.00
22755;BME280;11544;42.020;23.094;2023-04-25T06:40:21;96370.41;;;16.84;100.00
22755;BME280;11544;42.020;23.094;2023-04-25T06:42:48;96363.97;;;16.64;100.00
22755;BME280;11544;42.020;23.094;2023-04-25T06:45:15;96365.47;;;16.31;100.00
22755;BME280;11544;42.020;23.094;2023-04-25T06:47:42;96358.78;;;16.99;100.00
22755;BME280;11544;42.020;23.094;2023-04-25T06:50:10;96356.19;;;17.22;95.76
22755;BME280;11544;42.020;23.094;2023-04-25T06:52:39;96343.75;;;16.88;96.67
22755;BME280;11544;42.020;23.094;2023-04-25T06:55:06;96338.06;;;17.64;93.91
22755;BME280;11544;42.020;23.094;2023-04-25T06:57:33;96325.72;;;17.64;90.23
22755;BME280;11544;42.020;23.094;2023-04-25T07:00:00;96328.28;;;17.19;88.68
22755;BME280;11544;42.020;23.094;2023-04-25T07:02:28;96331.59;;;16.75;88.33
22755;BME280;11544;42.020;23.094;2023-04-25T07:04:55;96348.03;;;16.54;95.04
22755;BME280;11544;42.020;23.094;2023-04-25T07:07:26;96337.22;;;18.31;86.03
22755;BME280;11544;42.020;23.094;2023-04-25T07:09:53;96332.81;;;17.86;84.66
22755;BME280;11544;42.020;23.094;2023-04-25T07:12:21;96336.03;;;17.90;87.83
22755;BME280;11544;42.020;23.094;2023-04-25T07:14:48;96322.59;;;19.54;72.62
22755;BME280;11544;42.020;23.094;2023-04-25T07:17:15;96329.06;;;19.19;63.17
22755;BME280;11544;42.020;23.094;2023-04-25T07:19:42;96313.00;;;20.24;57.73
22755;BME280;11544;42.020;23.094;2023-04-25T07:22:10;96312.88;;;20.26;52.40
22755;BME280;11544;42.020;23.094;2023-04-25T07:24:37;96318.72;;;19.07;57.51
22755;BME280;11544;42.020;23.094;2023-04-25T07:27:04;96302.72;;;21.19;53.81
22755;BME280;11544;42.020;23.094;2023-04-25T07:29:30;96307.75;;;21.41;54.59
22755;BME280;11544;42.020;23.094;2023-04-25T07:31:58;96302.91;;;20.78;55.27
22755;BME280;11544;42.020;23.094;2023-04-25T07:34:25;96304.56;;;21.18;53.10
22755;BME280;11544;42.020;23.094;2023-04-25T07:36:55;96294.84;;;20.60;52.44
22755;BME280;11544;42.020;23.094;2023-04-25T07:39:26;96301.66;;;20.63;50.78
22755;BME280;11544;42.020;23.094;2023-04-25T07:41:52;96303.84;;;19.57;52.67
22755;BME280;11544;42.020;23.094;2023-04-25T07:44:22;96304.50;;;20.21;53.38
22755;BME280;11544;42.020;23.094;2023-04-25T07:46:49;96299.41;;;20.48;52.66
22755;BME280;11544;42.020;23.094;2023-04-25T07:49:16;96298.31;;;20.80;51.72
22755;BME280;11544;42.020;23.094;2023-04-25T07:51:43;96297.31;;;20.52;52.25
22755;BME280;11544;42.020;23.094;2023-04-25T07:54:13;96297.91;;;20.56;52.70
22755;BME280;11544;42.020;23.094;2023-04-25T07:56:40;96297.75;;;21.06;50.59
22755;BME280;11544;42.020;23.094;2023-04-25T07:59:18;96299.28;;;20.60;51.71
22755;BME280;11544;42.020;23.094;2023-04-25T08:01:46;96294.81;;;20.89;53.29
22755;BME280;11544;42.020;23.094;2023-04-25T08:04:27;96288.84;;;20.78;51.91
22755;BME280;11544;42.020;23.094;2023-04-25T08:06:55;96281.19;;;19.95;52.10
22755;BME280;11544;42.020;23.094;2023-04-25T08:09:22;96283.13;;;20.82;49.91
22755;BME280;11544;42.020;23.094;2023-04-25T08:11:50;96278.09;;;20.99;49.67
22755;BME280;11544;42.020;23.094;2023-04-25T08:14:17;96265.78;;;21.74;50.77
22755;BME280;11544;42.020;23.094;2023-04-25T08:16:44;96272.78;;;20.99;49.67
22755;BME280;11544;42.020;23.094;2023-04-25T08:19:24;96279.63;;;19.31;50.86
22755;BME280;11544;42.020;23.094;2023-04-25T08:21:51;96274.47;;;19.91;50.30
22755;BME280;11544;42.020;23.094;2023-04-25T08:24:25;96280.59;;;20.51;49.30
22755;BME280;11544;42.020;23.094;2023-04-25T08:26:51;96276.59;;;20.77;51.15
22755;BME280;11544;42.020;23.094;2023-04-25T08:29:25;96276.59;;;20.86;50.29
22755;BME280;11544;42.020;23.094;2023-04-25T08:31:54;96269.38;;;21.45;50.14
22755;BME280;11544;42.020;23.094;2023-04-25T08:34:22;96272.47;;;21.31;47.70
22755;BME280;11544;42.020;23.094;2023-04-25T08:36:49;96266.94;;;21.62;45.41
22755;BME280;11544;42.020;23.094;2023-04-25T08:39:17;96259.38;;;21.67;49.79
22755;BME280;11544;42.020;23.094;2023-04-25T08:41:44;96260.19;;;22.32;47.58
22755;BME280;11544;42.020;23.094;2023-04-25T08:44:12;96258.66;;;22.20;48.10
22755;BME280;11544;42.020;23.094;2023-04-25T08:46:41;96258.22;;;21.79;46.67
22755;BME280;11544;42.020;23.094;2023-04-25T08:49:23;96254.50;;;22.17;44.64
22755;BME280;11544;42.020;23.094;2023-04-25T08:51:52;96263.03;;;22.39;43.64
22755;BME280;11544;42.020;23.094;2023-04-25T08:54:21;96252.63;;;22.81;42.28
22755;BME280;11544;42.020;23.094;2023-04-25T08:57:02;96239.16;;;21.09;44.09
22755;BME280;11544;42.020;23.094;2023-04-25T08:59:35;96249.81;;;20.89;45.63
22755;BME280;11544;42.020;23.094;2023-04-25T09:02:04;96237.81;;;21.80;43.45
22755;BME280;11544;42.020;23.094;2023-04-25T09:04:31;96243.16;;;21.32;44.81
22755;BME280;11544;42.020;23.094;2023-04-25T09:06:58;96237.22;;;21.11;42.38
22755;BME280;11544;42.020;23.094;2023-04-25T09:09:26;96239.78;;;22.05;39.98
22755;BME280;11544;42.020;23.094;2023-04-25T09:11:53;96238.81;;;20.84;41.71
22755;BME280;11544;42.020;23.094;2023-04-25T09:14:23;96225.97;;;20.31;44.11
22755;BME280;11544;42.020;23.094;2023-04-25T09:17:12;96221.56;;;21.18;43.80
22755;BME280;11544;42.020;23.094;2023-04-25T09:19:52;96218.31;;;21.98;45.88
22755;BME280;11544;42.020;23.094;2023-04-25T09:22:22;96217.72;;;21.49;42.25
22755;BME280;11544;42.020;23.094;2023-04-25T09:25:09;96217.91;;;21.66;41.51
22755;BME280;11544;42.020;23.094;2023-04-25T09:27:49;96206.59;;;21.46;42.81
22755;BME280;11544;42.020;23.094;2023-04-25T09:30:17;96199.94;;;22.51;42.82
22755;BME280;11544;42.020;23.094;2023-04-25T09:32:44;96188.78;;;22.91;40.38
22755;BME280;11544;42.020;23.094;2023-04-25T09:35:24;96185.09;;;22.40;42.17
22755;BME280;11544;42.020;23.094;2023-04-25T09:37:56;96176.50;;;22.90;40.37
22755;BME280;11544;42.020;23.094;2023-04-25T09:40:23;96171.06;;;22.74;38.09
22755;BME280;11544;42.020;23.094;2023-04-25T09:42:50;96178.81;;;21.50;39.90
22755;BME280;11544;42.020;23.094;2023-04-25T09:45:17;96171.16;;;21.37;39.53
22755;BME280;11544;42.020;23.094;2023-04-25T09:47:45;96165.78;;;20.72;41.76
22755;BME280;11544;42.020;23.094;2023-04-25T09:50:17;96159.81;;;21.17;39.91
22755;BME280;11544;42.020;23.094;2023-04-25T09:52:45;96158.69;;;22.21;40.21
22755;BME280;11544;42.020;23.094;2023-04-25T09:55:32;96163.94;;;21.85;41.60
22755;BME280;11544;42.020;23.094;2023-04-25T09:58:04;96166.00;;;21.35;40.21
22755;BME280;11544;42.020;23.094;2023-04-25T10:00:33;96149.34;;;20.68;42.16
22755;BME280;11544;42.020;23.094;2023-04-25T10:03:06;96150.91;;;21.73;42.58
22755;BME280;11544;42.020;23.094;2023-04-25T10:05:34;96147.75;;;21.88;41.99
22755;BME280;11544;42.020;23.094;2023-04-25T10:08:03;96153.88;;;21.88;41.38
22755;BME280;11544;42.020;23.094;2023-04-25T10:10:33;96166.72;;;21.28;43.16
22755;BME280;11544;42.020;23.094;2023-04-25T10:13:04;96172.03;;;19.93;47.94
22755;BME280;11544;42.020;23.094;2023-04-25T10:15:34;96218.38;;;18.86;47.81
22755;BME280;11544;42.020;23.094;2023-04-25T10:18:06;96203.59;;;17.97;49.67
22755;BME280;11544;42.020;23.094;2023-04-25T10:20:33;96194.75;;;17.76;49.66
22755;BME280;11544;42.020;23.094;2023-04-25T10:23:11;96198.03;;;18.65;48.78
22755;BME280;11544;42.020;23.094;2023-04-25T10:25:40;96193.44;;;18.78;47.59
22755;BME280;11544;42.020;23.094;2023-04-25T10:28:08;96187.88;;;19.74;45.91
22755;BME280;11544;42.020;23.094;2023-04-25T10:30:35;96190.72;;;20.11;44.90
22755;BME280;11544;42.020;23.094;2023-04-25T10:33:16;96182.50;;;20.82;45.86
22755;BME280;11544;42.020;23.094;2023-04-25T10:35:45;96185.44;;;20.40;43.76
22755;BME280;11544;42.020;23.094;2023-04-25T10:38:14;96178.88;;;20.44;43.38
22755;BME280;11544;42.020;23.094;2023-04-25T10:40:41;96187.91;;;21.00;42.35
22755;BME280;11544;42.020;23.094;2023-04-25T10:43:37;96183.47;;;22.29;43.14
22755;BME280;11544;42.020;23.094;2023-04-25T10:46:24;96178.75;;;22.05;41.84
22755;BME280;11544;42.020;23.094;2023-04-25T10:48:54;96160.63;;;21.18;43.27
22755;BME280;11544;42.020;23.094;2023-04-25T10:51:27;96158.06;;;21.26;43.23
22755;BME280;11544;42.020;23.094;2023-04-25T10:54:04;96164.03;;;21.38;41.63
22755;BME280;11544;42.020;23.094;2023-04-25T10:56:33;96153.56;;;21.08;41.51
22755;BME280;11544;42.020;23.094;2023-04-25T10:59:05;96152.50;;;21.66;42.70
22755;BME280;11544;42.020;23.094;2023-04-25T11:01:38;96139.84;;;21.96;39.15
22755;BME280;11544;42.020;23.094;2023-04-25T11:04:06;96130.50;;;21.74;39.02
22755;BME280;11544;42.020;23.094;2023-04-25T11:06:58;96123.59;;;21.63;41.44
22755;BME280;11544;42.020;23.094;2023-04-25T11:09:33;96125.72;;;20.18;44.88
22755;BME280;11544;42.020;23.094;2023-04-25T11:12:01;96120.19;;;21.15;43.85
22755;BME280;11544;42.020;23.094;2023-04-25T11:14:27;96116.81;;;21.23;45.40
22755;BME280;11544;42.020;23.094;2023-04-25T11:16:55;96116.94;;;20.94;44.80
22755;BME280;11544;42.020;23.094;2023-04-25T11:19:27;96113.81;;;20.71;44.98
22755;BME280;11544;42.020;23.094;2023-04-25T11:21:58;96104.31;;;21.15;44.44
22755;BME280;11544;42.020;23.094;2023-04-25T11:24:28;96108.78;;;21.15;43.08
22755;BME280;11544;42.020;23.094;2023-04-25T11:26:59;96095.84;;;20.65;43.29
22755;BME280;11544;42.020;23.094;2023-04-25T11:29:34;96098.59;;;20.73;43.37
22755;BME280;11544;42.020;23.094;2023-04-25T11:32:05;96087.50;;;20.60;40.96
22755;BME280;11544;42.020;23.094;2023-04-25T11:34:46;96086.13;;;20.36;40.77
22755;BME280;11544;42.020;23.094;2023-04-25T11:37:14;96086.28;;;20.91;40.63
22755;BME280;11544;42.020;23.094;2023-04-25T11:39:44;96074.72;;;21.20;39.88
22755;BME280;11544;42.020;23.094;2023-04-25T11:42:13;96079.38;;;21.08;41.02
22755;BME280;11544;42.020;23.094;2023-04-25T11:44:42;96075.56;;;20.83;42.68
22755;BME280;11544;42.020;23.094;2023-04-25T11:47:10;96069.59;;;21.09;40.82
22755;BME280;11544;42.020;23.094;2023-04-25T11:49:37;96073.38;;;21.62;38.84
22755;BME280;11544;42.020;23.094;2023-04-25T11:52:06;96065.88;;;21.29;38.04
22755;BME280;11544;42.020;23.094;2023-04-25T11:54:37;96068.88;;;21.17;37.40
22755;BME280;11544;42.020;23.094;2023-04-25T11:57:06;96063.91;;;21.31;38.83
22755;BME280;11544;42.020;23.094;2023-04-25T11:59:36;96073.25;;;21.35;39.55
22755;BME280;11544;42.020;23.094;2023-04-25T12:02:06;96069.31;;;21.40;40.43
22755;BME280;11544;42.020;23.094;2023-04-25T12:04:33;96075.03;;;21.63;40.62
22755;BME280;11544;42.020;23.094;2023-04-25T12:07:00;96082.06;;;20.99;43.10
22755;BME280;11544;42.020;23.094;2023-04-25T12:09:32;96083.59;;;20.64;45.22
22755;BME280;11544;42.020;23.094;2023-04-25T12:12:00;96093.56;;;20.03;45.92
22755;BME280;11544;42.020;23.094;2023-04-25T12:14:33;96105.94;;;20.22;46.38
22755;BME280;11544;42.020;23.094;2023-04-25T12:17:01;96117.34;;;19.74;47.29
22755;BME280;11544;42.020;23.094;2023-04-25T12:19:33;96116.72;;;19.11;51.15
22755;BME280;11544;42.020;23.094;2023-04-25T12:22:02;96112.22;;;19.32;51.65
22755;BME280;11544;42.020;23.094;2023-04-25T12:24:34;96117.41;;;19.03;52.07
22755;BME280;11544;42.020;23.094;2023-04-25T12:27:06;96125.38;;;18.61;53.45
22755;BME280;11544;42.020;23.094;2023-04-25T12:29:35;96122.63;;;18.41;53.78
22755;BME280;11544;42.020;23.094;2023-04-25T12:32:05;96128.03;;;18.19;54.86
22755;BME280;11544;42.020;23.094;2023-04-25T12:34:32;96127.50;;;18.46;54.91
22755;BME280;11544;42.020;23.094;2023-04-25T12:37:01;96133.50;;;18.48;57.06
22755;BME280;11544;42.020;23.094;2023-04-25T12:39:28;96144.50;;;18.53;56.97
22755;BME280;11544;42.020;23.094;2023-04-25T12:41:55;96157.41;;;18.14;57.72
22755;BME280;11544;42.020;23.094;2023-04-25T12:44:22;96167.31;;;17.78;61.58
22755;BME280;11544;42.020;23.094;2023-04-25T12:46:49;96169.06;;;17.57;65.03
22755;BME280;11544;42.020;23.094;2023-04-25T12:49:16;96169.56;;;17.40;63.37
22755;BME280;11544;42.020;23.094;2023-04-25T12:51:45;96169.25;;;17.10;63.09
22755;BME280;11544;42.020;23.094;2023-04-25T12:54:12;96170.66;;;17.26;67.45
22755;BME280;11544;42.020;23.094;2023-04-25T12:56:47;96175.19;;;17.12;74.19